Time;durP1;ratioP1;P1;durP2;ratioP2;P2;SDS_P1;SDS_P2;PMS_P1;PMS_P2;Temp;Humidity;BMP_temperature;BMP_pressure;BME280_temperature;BME280_humidity;BME280_pressure;Samples;Min_cycle;Max_cycle;Signal;HPM_P1;HPM_P2
2023/06/12 00:01:14;;;;;;;7.70;5.47;;;21.50;80.10;;;;;;5066367;28;20219;-77
2023/06/12 00:03:43;;;;;;;7.18;4.80;;;21.40;80.40;;;;;;5078519;28;20204;-77
2023/06/12 00:06:11;;;;;;;6.82;5.20;;;21.30;80.50;;;;;;5086314;28;20204;-77
2023/06/12 00:08:41;;;;;;;5.90;4.60;;;21.30;81.00;;;;;;5081398;28;20256;-78
2023/06/12 00:11:12;;;;;;;7.97;4.95;;;21.20;81.40;;;;;;5081027;28;20295;-76
2023/06/12 00:13:44;;;;;;;8.13;5.30;;;21.20;81.60;;;;;;5082415;28;20228;-77
2023/06/12 00:16:11;;;;;;;6.47;5.05;;;21.10;81.80;;;;;;5084169;28;20216;-77
2023/06/12 00:18:39;;;;;;;9.60;5.40;;;21.10;81.80;;;;;;5083671;28;20200;-77
2023/06/12 00:21:08;;;;;;;7.25;4.97;;;21.00;82.30;;;;;;5082671;28;20557;-77
2023/06/12 00:23:36;;;;;;;8.23;5.35;;;20.80;82.80;;;;;;5082381;28;20208;-76
2023/06/12 00:26:03;;;;;;;8.80;5.53;;;20.80;83.50;;;;;;5083133;28;20227;-77
2023/06/12 00:28:31;;;;;;;7.13;5.63;;;20.70;84.10;;;;;;5076948;28;20203;-77
2023/06/12 00:30:58;;;;;;;7.95;5.75;;;20.70;84.90;;;;;;5073195;28;20220;-78
2023/06/12 00:33:25;;;;;;;7.30;5.35;;;20.60;85.60;;;;;;5084591;28;20192;-76
2023/06/12 00:35:52;;;;;;;8.00;6.28;;;20.60;86.00;;;;;;5083070;28;20204;-77
2023/06/12 00:38:20;;;;;;;7.07;5.75;;;20.50;86.20;;;;;;5085204;28;20196;-77
2023/06/12 00:40:48;;;;;;;6.82;6.07;;;20.40;86.70;;;;;;5079828;28;20201;-79
2023/06/12 00:43:15;;;;;;;10.75;6.70;;;20.30;87.30;;;;;;5079198;28;20624;-76
2023/06/12 00:45:43;;;;;;;10.18;5.85;;;20.30;87.90;;;;;;5073974;28;20685;-77
2023/06/12 00:48:10;;;;;;;8.70;6.43;;;20.30;88.50;;;;;;5078209;28;20695;-78
2023/06/12 00:50:39;;;;;;;9.05;6.32;;;20.20;88.90;;;;;;5064801;28;20279;-78
2023/06/12 00:53:07;;;;;;;7.95;6.40;;;20.10;89.40;;;;;;5087238;28;20673;-78
2023/06/12 00:55:35;;;;;;;7.35;6.22;;;20.10;90.10;;;;;;5099562;28;20245;-78
2023/06/12 00:58:03;;;;;;;9.35;6.05;;;20.00;89.70;;;;;;5097952;28;20239;-78
2023/06/12 01:00:30;;;;;;;7.55;6.00;;;20.00;90.00;;;;;;5083046;28;20620;-77
2023/06/12 01:03:09;;;;;;;7.57;6.22;;;19.90;90.20;;;;;;5077548;28;20235;-79
2023/06/12 01:05:42;;;;;;;9.77;6.20;;;19.90;90.50;;;;;;5084941;28;20199;-77
2023/06/12 01:08:37;;;;;;;9.68;6.53;;;19.90;90.70;;;;;;5081503;28;20684;-80
2023/06/12 01:11:07;;;;;;;7.53;6.13;;;19.70;91.10;;;;;;5087930;28;20330;-78
2023/06/12 01:13:35;;;;;;;12.23;6.75;;;19.60;91.40;;;;;;5080612;28;20231;-77
2023/06/12 01:16:02;;;;;;;11.05;7.18;;;19.50;91.50;;;;;;5077655;28;20673;-77
2023/06/12 01:18:29;;;;;;;8.27;6.45;;;19.40;91.60;;;;;;5079869;28;20617;-78
2023/06/12 01:20:58;;;;;;;10.63;7.03;;;19.50;91.80;;;;;;5078686;28;20205;-78
2023/06/12 01:24:22;;;;;;;9.52;7.13;;;19.30;91.80;;;;;;5080964;28;20200;-77
2023/06/12 01:27:19;;;;;;;8.40;7.35;;;19.30;91.80;;;;;;5026074;28;20322;-77
2023/06/12 01:30:01;;;;;;;12.35;7.80;;;19.20;91.90;;;;;;5027442;28;20224;-77
2023/06/12 01:32:30;;;;;;;9.35;6.85;;;19.10;92.00;;;;;;5066870;28;20231;-78
2023/06/12 01:35:07;;;;;;;10.07;7.90;;;19.10;91.90;;;;;;5081209;28;20291;-77
2023/06/12 01:37:47;;;;;;;9.05;7.20;;;19.10;92.00;;;;;;5084243;28;20507;-77
2023/06/12 01:40:16;;;;;;;8.60;7.22;;;19.00;92.20;;;;;;5085543;28;20226;-79
2023/06/12 01:42:43;;;;;;;9.30;7.57;;;19.00;92.30;;;;;;5057734;28;20282;-76
2023/06/12 01:45:10;;;;;;;12.60;7.77;;;18.90;92.60;;;;;;5082936;28;20603;-77
2023/06/12 01:47:37;;;;;;;10.00;7.50;;;18.90;92.90;;;;;;5065873;28;20240;-77
2023/06/12 01:50:08;;;;;;;13.73;8.60;;;18.80;93.20;;;;;;5076038;28;20207;-77
2023/06/12 01:52:35;;;;;;;12.30;8.93;;;18.80;93.50;;;;;;5076673;28;20214;-78
2023/06/12 01:55:04;;;;;;;10.40;8.27;;;18.70;94.10;;;;;;5085558;28;20204;-77
2023/06/12 01:57:32;;;;;;;9.50;8.03;;;18.70;94.10;;;;;;5081448;28;20205;-78
2023/06/12 02:00:04;;;;;;;10.40;7.87;;;18.60;94.20;;;;;;5063902;28;20208;-78
2023/06/12 02:02:34;;;;;;;11.47;8.70;;;18.50;94.40;;;;;;5080500;28;20244;-78
2023/06/12 02:05:01;;;;;;;10.17;8.07;;;18.50;94.50;;;;;;5078875;28;20201;-77
2023/06/12 02:07:27;;;;;;;10.20;8.20;;;18.40;94.60;;;;;;5058183;28;20308;-77
2023/06/12 02:09:54;;;;;;;10.57;7.83;;;18.40;94.60;;;;;;5079054;28;20204;-80
2023/06/12 02:12:21;;;;;;;10.73;7.80;;;18.30;94.80;;;;;;5078588;28;20235;-77
2023/06/12 02:14:50;;;;;;;9.60;7.80;;;18.30;94.80;;;;;;5083675;28;20207;-78
2023/06/12 02:17:19;;;;;;;11.37;8.43;;;18.30;95.00;;;;;;5057746;28;20220;-77
2023/06/12 02:19:47;;;;;;;13.63;8.23;;;18.30;95.20;;;;;;5091987;28;20208;-79
2023/06/12 02:22:14;;;;;;;10.00;7.70;;;18.20;95.50;;;;;;5078685;28;20284;-79
2023/06/12 02:24:41;;;;;;;10.43;8.13;;;18.10;95.80;;;;;;5082803;28;20288;-79
2023/06/12 02:27:08;;;;;;;12.00;7.60;;;18.20;96.80;;;;;;5075417;28;20286;-78
2023/06/12 02:29:34;;;;;;;10.90;7.73;;;18.10;96.20;;;;;;5085668;28;20258;-78
2023/06/12 02:32:01;;;;;;;11.87;8.23;;;18.00;96.50;;;;;;5081189;28;20224;-78
2023/06/12 02:34:28;;;;;;;9.93;7.97;;;18.00;96.70;;;;;;5080843;28;20228;-78
2023/06/12 02:36:55;;;;;;;11.47;7.93;;;18.00;97.80;;;;;;5075495;28;20660;-80
2023/06/12 02:39:22;;;;;;;9.20;8.20;;;17.90;97.10;;;;;;5063459;28;20231;-78
2023/06/12 02:41:49;;;;;;;11.80;8.27;;;17.90;97.50;;;;;;5060585;28;20552;-80
2023/06/12 02:44:16;;;;;;;11.80;8.20;;;17.90;97.70;;;;;;5078939;28;20206;-79
2023/06/12 02:46:55;;;;;;;10.40;7.80;;;17.80;97.80;;;;;;5074963;28;20269;-78
2023/06/12 02:49:23;;;;;;;10.33;8.30;;;17.70;97.90;;;;;;5083459;28;20204;-79
2023/06/12 02:51:50;;;;;;;12.53;8.57;;;17.70;98.30;;;;;;5059791;28;20214;-79
2023/06/12 02:54:18;;;;;;;10.47;8.40;;;17.70;98.50;;;;;;5078408;28;20555;-79
2023/06/12 02:56:45;;;;;;;13.43;8.47;;;17.70;98.70;;;;;;5084207;28;20199;-78
2023/06/12 02:59:17;;;;;;;11.67;9.23;;;17.60;99.10;;;;;;5076216;28;20212;-77
2023/06/12 03:01:45;;;;;;;11.27;8.20;;;17.50;99.40;;;;;;5082637;28;20223;-78
2023/06/12 03:04:12;;;;;;;12.27;8.83;;;17.50;99.80;;;;;;5059637;28;20211;-79
2023/06/12 03:06:41;;;;;;;11.60;9.13;;;17.50;99.90;;;;;;5079063;28;20228;-80
2023/06/12 03:09:08;;;;;;;10.37;8.43;;;17.40;99.90;;;;;;5080067;28;20196;-79
2023/06/12 03:11:36;;;;;;;11.37;8.77;;;17.40;99.90;;;;;;5080987;28;20200;-77
2023/06/12 03:14:07;;;;;;;13.23;8.57;;;17.40;99.90;;;;;;5078503;28;20205;-77
2023/06/12 03:16:34;;;;;;;10.70;8.53;;;17.30;99.90;;;;;;5084837;28;20280;-78
2023/06/12 03:19:01;;;;;;;11.83;8.30;;;17.20;99.90;;;;;;5082289;28;20219;-79
2023/06/12 03:21:28;;;;;;;10.17;7.73;;;17.20;99.90;;;;;;5065623;28;20200;-79
2023/06/12 03:23:56;;;;;;;10.17;8.17;;;17.20;99.90;;;;;;5078113;28;20258;-78
2023/06/12 03:26:23;;;;;;;10.83;7.37;;;17.20;99.90;;;;;;5078088;28;20305;-80
2023/06/12 03:28:50;;;;;;;11.40;8.83;;;17.10;99.90;;;;;;5074479;28;20212;-78
2023/06/12 03:31:17;;;;;;;10.43;7.93;;;17.10;99.90;;;;;;5077415;28;20228;-76
2023/06/12 03:33:44;;;;;;;11.00;8.60;;;17.10;99.90;;;;;;5094114;28;20316;-78
2023/06/12 03:36:11;;;;;;;14.43;8.80;;;17.10;99.90;;;;;;5081887;28;20201;-77
2023/06/12 03:38:38;;;;;;;13.13;8.73;;;17.00;99.90;;;;;;5081021;28;20195;-79
2023/06/12 03:41:05;;;;;;;10.40;8.27;;;17.00;99.90;;;;;;5078022;28;20653;-77
2023/06/12 03:43:32;;;;;;;10.03;8.00;;;17.00;99.90;;;;;;5083289;28;20585;-77
2023/06/12 03:45:58;;;;;;;12.77;9.17;;;17.00;99.90;;;;;;5082736;28;20687;-77
2023/06/12 03:48:25;;;;;;;12.43;9.57;;;17.00;99.90;;;;;;5080872;28;20243;-79
2023/06/12 03:50:52;;;;;;;11.43;8.53;;;17.00;99.90;;;;;;5084411;28;20211;-81
2023/06/12 03:53:19;;;;;;;12.40;9.10;;;16.90;99.90;;;;;;5061013;28;20661;-78
2023/06/12 03:55:46;;;;;;;12.43;8.93;;;16.90;99.90;;;;;;5084737;28;20249;-77
2023/06/12 03:58:16;;;;;;;11.77;8.90;;;16.90;99.90;;;;;;5080302;28;20204;-77
2023/06/12 04:00:47;;;;;;;11.43;9.10;;;16.90;99.90;;;;;;5077152;28;20208;-77
2023/06/12 04:03:18;;;;;;;11.43;8.57;;;16.90;99.90;;;;;;5078608;28;20206;-77
2023/06/12 04:05:45;;;;;;;11.50;8.13;;;16.90;99.90;;;;;;5061611;28;20219;-77
2023/06/12 04:08:12;;;;;;;12.53;9.23;;;16.90;99.90;;;;;;5094979;28;20705;-77
2023/06/12 04:10:40;;;;;;;12.67;9.10;;;16.90;99.90;;;;;;5083002;28;20647;-80
2023/06/12 04:13:07;;;;;;;12.57;9.47;;;16.90;99.90;;;;;;5077219;28;20318;-79
2023/06/12 04:15:34;;;;;;;13.90;9.60;;;17.00;99.90;;;;;;5079385;28;20208;-78
2023/06/12 04:18:01;;;;;;;11.33;9.63;;;17.00;99.90;;;;;;5072402;28;20211;-77
2023/06/12 04:20:29;;;;;;;11.73;9.00;;;17.00;99.90;;;;;;5077577;28;20197;-78
2023/06/12 04:23:04;;;;;;;12.50;9.70;;;17.00;99.90;;;;;;5077379;28;20270;-80
2023/06/12 04:25:32;;;;;;;12.97;8.97;;;17.10;99.90;;;;;;5074552;28;20290;-77
2023/06/12 04:28:00;;;;;;;13.63;9.93;;;17.10;99.90;;;;;;5073539;28;20266;-77
2023/06/12 04:30:27;;;;;;;14.37;8.93;;;17.10;99.90;;;;;;5085974;28;20588;-78
2023/06/12 04:32:56;;;;;;;11.70;9.07;;;17.20;99.90;;;;;;5081271;28;20311;-78
2023/06/12 04:35:23;;;;;;;13.50;10.00;;;17.30;99.90;;;;;;5080869;28;20204;-77
2023/06/12 04:37:52;;;;;;;12.73;9.17;;;17.30;99.90;;;;;;5084468;28;20208;-77
2023/06/12 04:40:24;;;;;;;16.13;9.83;;;17.40;99.90;;;;;;5083930;28;20228;-80
2023/06/12 04:42:56;;;;;;;11.77;8.77;;;17.50;99.90;;;;;;5083966;28;20604;-78
2023/06/12 04:45:23;;;;;;;13.00;9.50;;;17.60;99.90;;;;;;5066313;28;20207;-80
2023/06/12 04:47:51;;;;;;;17.50;10.10;;;17.60;99.90;;;;;;5083885;28;20236;-78
2023/06/12 04:50:18;;;;;;;11.73;9.00;;;17.80;99.90;;;;;;5074815;28;20236;-77
2023/06/12 04:52:47;;;;;;;13.97;10.17;;;17.80;99.90;;;;;;5086849;28;20204;-77
2023/06/12 04:55:20;;;;;;;14.07;9.93;;;17.90;99.90;;;;;;5077564;28;20206;-78
2023/06/12 04:57:52;;;;;;;12.90;10.07;;;18.00;99.90;;;;;;5084529;28;20295;-77
2023/06/12 05:00:20;;;;;;;11.73;9.60;;;18.10;99.90;;;;;;5081581;28;20257;-76
2023/06/12 05:02:49;;;;;;;14.13;9.80;;;18.20;99.90;;;;;;5081329;28;20256;-77
2023/06/12 05:05:16;;;;;;;13.77;9.55;;;18.30;99.90;;;;;;5067120;28;20343;-77
2023/06/12 05:07:45;;;;;;;13.77;10.60;;;18.40;99.90;;;;;;5077192;28;20220;-78
2023/06/12 05:10:15;;;;;;;15.35;10.77;;;18.50;99.90;;;;;;5086265;28;20558;-78
2023/06/12 05:12:42;;;;;;;16.23;9.98;;;18.60;99.90;;;;;;5078380;28;20252;-77
2023/06/12 05:15:09;;;;;;;14.27;10.13;;;18.70;99.90;;;;;;5085910;28;20207;-78
2023/06/12 05:17:37;;;;;;;15.60;10.38;;;18.80;99.90;;;;;;5081873;28;20706;-77
2023/06/12 05:20:08;;;;;;;14.68;9.90;;;18.80;99.90;;;;;;5079271;28;20278;-77
2023/06/12 05:22:36;;;;;;;20.60;11.25;;;18.90;99.90;;;;;;5070380;28;20234;-77
2023/06/12 05:25:03;;;;;;;13.60;9.85;;;19.00;99.90;;;;;;5083631;28;20307;-77
2023/06/12 05:27:31;;;;;;;13.02;10.13;;;19.10;99.90;;;;;;5084972;28;20218;-78
2023/06/12 05:29:58;;;;;;;13.40;9.82;;;19.30;99.90;;;;;;5065207;28;20548;-76
2023/06/12 05:32:25;;;;;;;18.35;10.20;;;19.50;99.90;;;;;;5083863;28;20230;-76
2023/06/12 05:34:52;;;;;;;12.50;9.32;;;19.70;99.90;;;;;;5061255;28;20244;-77
2023/06/12 05:37:18;;;;;;;13.15;10.68;;;19.70;99.90;;;;;;5084350;28;20200;-76
2023/06/12 05:39:45;;;;;;;13.98;10.68;;;20.00;99.90;;;;;;5082180;28;20800;-77
2023/06/12 05:42:12;;;;;;;15.10;10.63;;;20.20;99.90;;;;;;5081291;28;20549;-78
2023/06/12 05:44:39;;;;;;;21.70;11.75;;;20.50;99.90;;;;;;5082791;28;20266;-77
2023/06/12 05:47:07;;;;;;;16.20;10.57;;;20.80;99.90;;;;;;5083893;28;20231;-76
2023/06/12 05:49:37;;;;;;;14.57;11.25;;;21.00;99.90;;;;;;5067849;28;21038;-77
2023/06/12 05:52:07;;;;;;;15.32;11.35;;;21.30;99.90;;;;;;5079387;28;20257;-76
2023/06/12 05:54:35;;;;;;;14.07;9.68;;;22.00;99.90;;;;;;5070711;28;20605;-77
2023/06/12 05:57:02;;;;;;;10.98;9.70;;;23.00;99.90;;;;;;5073099;28;20241;-78
2023/06/12 05:59:29;;;;;;;11.95;10.43;;;;;;;;;;5082551;28;20717;-76
2023/06/12 06:01:57;;;;;;;11.07;9.63;;;25.00;99.90;;;;;;5087452;28;20216;-78
2023/06/12 06:04:24;;;;;;;12.43;9.65;;;25.90;99.70;;;;;;5083987;28;20693;-76
2023/06/12 06:06:53;;;;;;;12.60;10.43;;;26.80;98.30;;;;;;5069831;28;20200;-76
2023/06/12 06:09:20;;;;;;;12.00;9.10;;;27.60;96.20;;;;;;5072215;28;20207;-78
2023/06/12 06:11:47;;;;;;;11.07;8.95;;;28.10;94.50;;;;;;5088669;28;20456;-76
2023/06/12 06:14:17;;;;;;;10.93;9.82;;;28.80;91.60;;;;;;5086229;28;20200;-76
2023/06/12 06:16:43;;;;;;;12.45;9.43;;;29.50;91.40;;;;;;5088761;28;20216;-75
2023/06/12 06:19:20;;;;;;;11.63;9.23;;;29.70;90.80;;;;;;5084793;28;20204;-76
2023/06/12 06:21:47;;;;;;;13.80;8.82;;;30.20;89.50;;;;;;5080646;28;20208;-76
2023/06/12 06:24:14;;;;;;;8.98;8.07;;;30.60;87.30;;;;;;5063795;28;20773;-75
2023/06/12 06:26:41;;;;;;;13.07;9.90;;;31.10;86.00;;;;;;5081937;28;20723;-76
2023/06/12 06:29:08;;;;;;;14.88;9.30;;;31.60;84.80;;;;;;5083255;28;20267;-79
2023/06/12 06:31:41;;;;;;;10.77;9.15;;;31.40;82.50;;;;;;5080036;28;20763;-77
2023/06/12 06:34:08;;;;;;;11.85;9.00;;;31.40;82.30;;;;;;5080523;28;20208;-78
2023/06/12 06:36:35;;;;;;;9.48;8.55;;;31.50;82.30;;;;;;5077582;28;20200;-76
2023/06/12 06:39:03;;;;;;;10.57;9.25;;;31.80;81.00;;;;;;5065001;28;20212;-77
2023/06/12 06:41:30;;;;;;;10.48;8.40;;;32.00;80.40;;;;;;5083473;28;20200;-77
2023/06/12 06:43:57;;;;;;;12.38;8.90;;;31.90;80.20;;;;;;5079003;28;20251;-76
2023/06/12 06:46:23;;;;;;;10.65;8.55;;;32.20;79.60;;;;;;5078531;28;20227;-80
2023/06/12 06:48:50;;;;;;;12.30;8.90;;;32.40;79.40;;;;;;5073408;28;20224;-77
2023/06/12 06:51:17;;;;;;;9.43;8.02;;;32.80;78.10;;;;;;5078706;28;20571;-77
2023/06/12 06:53:44;;;;;;;9.23;7.70;;;33.00;77.60;;;;;;5077595;28;20215;-79
2023/06/12 06:56:11;;;;;;;12.45;8.23;;;33.00;76.80;;;;;;5082430;28;20214;-79
2023/06/12 06:58:38;;;;;;;11.75;7.57;;;33.10;77.00;;;;;;5066909;28;20248;-77
2023/06/12 07:01:05;;;;;;;8.25;6.97;;;33.10;76.40;;;;;;5082932;28;20219;-78
2023/06/12 07:03:33;;;;;;;8.23;7.43;;;33.30;75.80;;;;;;5081425;28;20261;-77
2023/06/12 07:06:00;;;;;;;8.43;6.68;;;33.50;75.40;;;;;;5060279;28;20209;-78
2023/06/12 07:08:27;;;;;;;9.38;6.65;;;33.70;74.80;;;;;;5079127;28;20231;-77
2023/06/12 07:10:53;;;;;;;8.18;7.25;;;33.90;73.90;;;;;;5081617;28;20239;-77
2023/06/12 07:13:20;;;;;;;9.32;6.85;;;34.00;73.30;;;;;;5079654;28;20235;-76
2023/06/12 07:15:47;;;;;;;8.50;7.35;;;33.90;73.60;;;;;;5082493;28;20207;-77
2023/06/12 07:18:15;;;;;;;8.50;7.18;;;33.90;73.50;;;;;;5079993;28;20210;-77
2023/06/12 07:20:42;;;;;;;8.00;7.20;;;33.90;73.60;;;;;;5076746;28;20207;-77
2023/06/12 07:23:09;;;;;;;9.27;6.88;;;34.10;73.70;;;;;;5077793;28;20218;-77
2023/06/12 07:25:37;;;;;;;8.70;7.22;;;34.40;74.00;;;;;;5078428;28;20276;-79
2023/06/12 07:28:03;;;;;;;7.13;6.00;;;34.40;72.40;;;;;;5077323;28;20228;-78
2023/06/12 07:30:30;;;;;;;8.93;6.30;;;34.50;72.60;;;;;;5060194;28;20508;-77
2023/06/12 07:32:57;;;;;;;7.47;6.35;;;34.70;71.80;;;;;;5080788;28;20215;-77
2023/06/12 07:35:25;;;;;;;7.80;5.63;;;34.80;70.70;;;;;;5079519;28;20279;-78
2023/06/12 07:37:51;;;;;;;8.90;6.38;;;34.80;70.90;;;;;;5061168;28;20207;-79
2023/06/12 07:40:18;;;;;;;7.25;6.45;;;34.70;69.90;;;;;;5063229;28;20655;-79
2023/06/12 07:42:46;;;;;;;6.70;6.00;;;34.50;70.00;;;;;;5074516;28;20204;-77
2023/06/12 07:45:12;;;;;;;7.50;5.70;;;34.20;70.30;;;;;;5078231;28;20288;-77
2023/06/12 07:47:40;;;;;;;6.85;5.60;;;34.20;71.10;;;;;;5080219;28;20281;-78
2023/06/12 07:50:11;;;;;;;6.65;5.82;;;34.40;71.20;;;;;;5078231;28;20203;-77
2023/06/12 07:52:38;;;;;;;8.80;5.30;;;34.80;70.90;;;;;;5062150;28;20204;-77
2023/06/12 07:55:06;;;;;;;8.20;5.47;;;35.10;70.10;;;;;;5066876;28;20207;-76
2023/06/12 07:57:33;;;;;;;7.10;5.72;;;35.20;68.90;;;;;;5080312;28;20196;-77
2023/06/12 07:59:59;;;;;;;8.63;5.75;;;35.20;68.70;;;;;;5079050;28;20224;-77
2023/06/12 08:02:28;;;;;;;5.10;4.60;;;35.20;68.60;;;;;;5093318;28;20242;-77
2023/06/12 08:04:56;;;;;;;7.90;5.70;;;35.10;67.20;;;;;;5083421;28;20235;-77
2023/06/12 08:07:22;;;;;;;8.02;5.35;;;35.00;67.20;;;;;;5081749;28;20291;-76
2023/06/12 08:09:49;;;;;;;7.75;4.75;;;35.00;67.00;;;;;;5077285;28;20254;-75
2023/06/12 08:12:16;;;;;;;7.30;5.25;;;34.80;66.90;;;;;;5074438;28;20243;-77
2023/06/12 08:14:44;;;;;;;6.82;5.05;;;34.90;66.70;;;;;;5079662;28;20208;-76
2023/06/12 08:17:11;;;;;;;6.78;5.38;;;34.90;66.20;;;;;;5077884;28;20220;-78
2023/06/12 08:19:39;;;;;;;6.45;5.20;;;34.80;65.70;;;;;;5076837;28;20203;-76
2023/06/12 08:22:08;;;;;;;7.63;5.05;;;34.70;66.00;;;;;;5084822;28;20356;-77
2023/06/12 08:24:36;;;;;;;7.80;5.35;;;34.80;66.30;;;;;;5079530;28;20212;-77
2023/06/12 08:27:03;;;;;;;8.15;5.65;;;34.70;65.30;;;;;;5074477;28;20203;-77
2023/06/12 08:29:30;;;;;;;6.45;5.40;;;34.70;65.70;;;;;;5080898;28;20703;-77
2023/06/12 08:31:57;;;;;;;7.53;5.35;;;34.70;65.30;;;;;;5056818;28;20220;-78
2023/06/12 08:34:25;;;;;;;6.88;5.10;;;34.80;66.40;;;;;;5080529;28;20264;-77
2023/06/12 08:36:53;;;;;;;6.45;5.50;;;34.80;66.30;;;;;;5077293;28;20588;-77
2023/06/12 08:39:20;;;;;;;8.05;5.13;;;34.70;65.70;;;;;;5077645;28;20203;-77
2023/06/12 08:42:07;;;;;;;6.38;5.70;;;34.70;65.40;;;;;;5077260;28;20207;-77
2023/06/12 08:44:34;;;;;;;6.40;5.15;;;35.00;64.20;;;;;;5075926;28;20196;-76
2023/06/12 08:47:03;;;;;;;6.03;5.43;;;35.10;65.80;;;;;;5074932;28;20220;-76
2023/06/12 08:49:31;;;;;;;6.93;5.70;;;35.50;66.00;;;;;;5075741;28;20307;-79
2023/06/12 08:52:00;;;;;;;10.35;5.30;;;35.60;64.00;;;;;;5084489;28;20234;-76
2023/06/12 08:54:28;;;;;;;8.40;5.80;;;35.50;62.10;;;;;;5059345;28;20299;-75
2023/06/12 08:56:57;;;;;;;9.27;5.80;;;35.00;60.90;;;;;;5082507;28;20298;-74
2023/06/12 08:59:24;;;;;;;7.13;5.63;;;34.70;60.20;;;;;;5077234;28;20504;-76
2023/06/12 09:01:54;;;;;;;8.38;5.82;;;34.40;61.00;;;;;;5055659;28;20723;-76
2023/06/12 09:05:02;;;;;;;7.13;5.43;;;34.30;62.80;;;;;;5073514;28;20204;-76
2023/06/12 09:07:37;;;;;;;7.68;5.35;;;34.30;62.50;;;;;;5073965;28;20211;-78
2023/06/12 09:10:04;;;;;;;7.18;5.70;;;34.30;62.90;;;;;;5079216;28;20226;-77
2023/06/12 09:12:43;;;;;;;9.18;6.25;;;34.30;62.30;;;;;;5066189;28;20624;-76
2023/06/12 09:15:17;;;;;;;8.45;6.25;;;34.00;60.80;;;;;;5083004;28;20200;-75
2023/06/12 09:17:51;;;;;;;6.03;5.43;;;33.90;59.80;;;;;;5085091;28;20218;-76
2023/06/12 09:20:29;;;;;;;6.75;6.05;;;33.70;60.30;;;;;;5084496;28;20214;-77
2023/06/12 09:23:07;;;;;;;6.57;5.68;;;33.60;60.60;;;;;;5095226;28;20228;-76
2023/06/12 09:25:40;;;;;;;8.20;6.25;;;33.60;60.90;;;;;;5077850;28;20208;-77
2023/06/12 09:28:09;;;;;;;6.72;5.82;;;33.60;59.20;;;;;;5081680;28;20689;-75
2023/06/12 09:30:41;;;;;;;6.50;5.70;;;33.70;58.40;;;;;;5077457;28;20212;-76
2023/06/12 09:33:08;;;;;;;6.43;5.35;;;33.70;58.50;;;;;;5083025;28;20207;-76
2023/06/12 09:35:53;;;;;;;8.40;5.95;;;33.30;58.50;;;;;;5085456;28;20618;-76
2023/06/12 09:38:35;;;;;;;6.60;6.00;;;32.90;57.90;;;;;;5081610;28;20204;-76
2023/06/12 09:41:07;;;;;;;9.32;6.70;;;32.70;58.60;;;;;;5080112;28;20204;-76
2023/06/12 09:43:34;;;;;;;11.93;6.53;;;32.70;59.00;;;;;;5076025;28;20212;-78
2023/06/12 09:46:04;;;;;;;7.47;5.63;;;32.70;60.40;;;;;;5082801;28;20224;-76
2023/06/12 09:48:35;;;;;;;14.65;7.78;;;32.90;57.70;;;;;;5079851;28;20223;-77
2023/06/12 09:51:20;;;;;;;10.02;5.80;;;33.00;57.50;;;;;;5080573;28;20210;-78
2023/06/12 09:53:49;;;;;;;9.00;5.70;;;33.10;56.90;;;;;;5083681;28;20637;-77
2023/06/12 09:56:17;;;;;;;7.43;5.40;;;33.10;55.80;;;;;;5085347;28;20196;-78
2023/06/12 09:58:47;;;;;;;8.73;6.03;;;33.10;55.90;;;;;;5079706;28;20215;-78
2023/06/12 10:01:17;;;;;;;8.38;5.75;;;33.10;56.60;;;;;;5077198;28;20300;-76
2023/06/12 10:03:47;;;;;;;9.73;5.97;;;33.00;56.70;;;;;;5083210;28;20212;-78
2023/06/12 10:06:16;;;;;;;6.65;5.72;;;32.60;56.20;;;;;;5079067;28;20304;-77
2023/06/12 10:08:43;;;;;;;7.25;5.85;;;32.20;56.30;;;;;;5079926;28;20219;-78
2023/06/12 10:11:11;;;;;;;8.23;5.13;;;32.10;57.40;;;;;;5082996;28;20196;-78
2023/06/12 10:13:39;;;;;;;6.35;5.35;;;32.10;57.70;;;;;;5078572;28;20293;-77
2023/06/12 10:16:07;;;;;;;6.43;5.20;;;32.30;57.60;;;;;;5078040;28;20732;-78
2023/06/12 10:18:34;;;;;;;5.22;4.72;;;32.30;58.10;;;;;;5081096;28;20197;-77
2023/06/12 10:21:03;;;;;;;7.90;5.22;;;32.50;57.30;;;;;;5083200;28;20202;-78
2023/06/12 10:23:31;;;;;;;5.60;5.00;;;32.60;57.10;;;;;;5066405;28;20196;-77
2023/06/12 10:26:01;;;;;;;6.20;4.75;;;32.50;53.80;;;;;;5077810;28;20204;-77
2023/06/12 10:28:29;;;;;;;5.75;4.50;;;32.20;54.20;;;;;;5079105;28;20835;-75
2023/06/12 10:31:11;;;;;;;6.25;4.90;;;32.30;54.60;;;;;;5075863;28;20216;-76
2023/06/12 10:33:56;;;;;;;7.40;5.18;;;32.40;54.80;;;;;;5079174;28;20286;-77
2023/06/12 10:36:23;;;;;;;5.28;4.28;;;32.50;54.80;;;;;;5087023;28;20287;-78
2023/06/12 10:39:02;;;;;;;5.25;4.30;;;32.70;54.70;;;;;;5081029;28;20203;-77
2023/06/12 10:41:32;;;;;;;5.22;3.97;;;32.90;52.90;;;;;;5083668;28;20195;-77
2023/06/12 10:44:02;;;;;;;5.15;4.65;;;32.90;53.10;;;;;;5074959;28;20222;-76
2023/06/12 10:46:43;;;;;;;6.38;4.60;;;32.90;53.20;;;;;;5079164;28;20679;-77
2023/06/12 10:49:13;;;;;;;8.63;4.80;;;32.80;52.40;;;;;;5056966;28;20422;-76
2023/06/12 10:51:47;;;;;;;6.43;5.32;;;32.70;53.30;;;;;;5082693;28;20257;-76
2023/06/12 10:54:15;;;;;;;5.18;4.18;;;32.50;52.50;;;;;;5078550;28;20245;-76
2023/06/12 10:56:59;;;;;;;6.63;4.60;;;32.50;52.90;;;;;;5087021;28;20207;-77
2023/06/12 10:59:45;;;;;;;7.22;5.45;;;32.50;52.60;;;;;;5082488;28;20212;-76
2023/06/12 11:02:13;;;;;;;6.68;5.03;;;32.60;53.80;;;;;;5084660;28;20220;-78
2023/06/12 11:04:40;;;;;;;5.90;5.05;;;32.60;52.60;;;;;;5075619;28;20208;-79
2023/06/12 11:07:07;;;;;;;7.32;5.82;;;32.60;51.10;;;;;;5082074;28;20208;-76
2023/06/12 11:09:40;;;;;;;6.05;5.43;;;32.70;51.20;;;;;;5075857;28;20236;-76
2023/06/12 11:12:08;;;;;;;6.80;5.30;;;32.60;51.50;;;;;;5088428;28;20236;-79
2023/06/12 11:14:35;;;;;;;9.00;5.60;;;32.50;52.20;;;;;;5079585;28;20205;-77
2023/06/12 11:17:02;;;;;;;6.65;5.32;;;32.50;52.60;;;;;;5080103;28;20246;-77
2023/06/12 11:19:45;;;;;;;5.90;5.28;;;32.50;53.40;;;;;;5119383;27;20556;-77
2023/06/12 11:22:12;;;;;;;6.22;5.22;;;32.50;53.80;;;;;;5100471;28;20252;-76
2023/06/12 11:24:39;;;;;;;8.15;5.35;;;32.40;54.00;;;;;;5099122;28;20210;-76
2023/06/12 11:27:06;;;;;;;8.32;5.57;;;32.50;54.10;;;;;;5116038;28;20619;-76
2023/06/12 11:29:34;;;;;;;6.30;4.97;;;32.70;53.70;;;;;;5114726;28;20207;-77
2023/06/12 11:32:21;;;;;;;5.97;5.32;;;32.70;53.40;;;;;;5115479;28;20701;-76
2023/06/12 11:34:51;;;;;;;6.20;4.88;;;32.80;53.30;;;;;;5115611;28;20753;-76
2023/06/12 11:37:20;;;;;;;5.93;5.32;;;33.00;53.30;;;;;;5115853;28;20203;-77
2023/06/12 11:40:07;;;;;;;6.63;4.97;;;33.10;53.80;;;;;;5114683;28;20635;-75
2023/06/12 11:42:36;;;;;;;8.05;5.28;;;32.90;54.60;;;;;;5118886;28;20607;-80
2023/06/12 11:45:10;;;;;;;5.70;4.75;;;32.80;54.60;;;;;;5111009;28;20226;-76
2023/06/12 11:47:39;;;;;;;6.53;4.97;;;32.70;54.70;;;;;;5077075;28;20237;-77
2023/06/12 11:50:11;;;;;;;6.35;5.43;;;32.70;55.10;;;;;;5111124;28;20215;-77
2023/06/12 11:52:41;;;;;;;7.22;5.18;;;32.90;56.00;;;;;;5116460;28;20198;-77
2023/06/12 11:55:17;;;;;;;5.90;5.30;;;33.10;56.30;;;;;;5112087;28;20223;-77
2023/06/12 11:57:48;;;;;;;7.38;5.28;;;33.30;56.50;;;;;;5114647;28;20249;-77
2023/06/12 12:00:20;;;;;;;7.53;5.38;;;33.20;56.20;;;;;;5111109;28;20218;-78
2023/06/12 12:02:55;;;;;;;7.35;5.07;;;33.40;55.90;;;;;;5117101;28;20766;-76
2023/06/12 12:05:23;;;;;;;6.10;4.63;;;33.50;55.50;;;;;;5111989;28;20195;-77
2023/06/12 12:07:57;;;;;;;7.50;4.93;;;33.50;55.30;;;;;;5111044;28;20208;-78
2023/06/12 12:10:28;;;;;;;8.65;5.18;;;33.50;55.60;;;;;;5094008;28;20207;-76
2023/06/12 12:13:00;;;;;;;6.68;5.38;;;33.70;55.70;;;;;;5111529;28;20283;-78
2023/06/12 12:15:31;;;;;;;6.55;5.25;;;33.70;55.70;;;;;;5114291;28;20206;-75
2023/06/12 12:17:58;;;;;;;5.78;5.00;;;33.50;55.30;;;;;;5112743;28;20239;-76
2023/06/12 12:20:26;;;;;;;6.13;5.18;;;33.20;55.40;;;;;;5104976;28;20547;-76
2023/06/12 12:22:58;;;;;;;8.43;5.68;;;33.00;55.80;;;;;;5110191;28;20248;-76
2023/06/12 12:25:30;;;;;;;6.40;5.60;;;32.90;57.30;;;;;;5096287;28;20669;-77
2023/06/12 12:28:03;;;;;;;6.10;5.10;;;32.70;57.40;;;;;;5114196;28;20500;-76
2023/06/12 12:30:30;;;;;;;6.45;5.70;;;32.70;58.10;;;;;;5100179;28;20204;-78
2023/06/12 12:32:59;;;;;;;6.88;5.72;;;32.50;58.40;;;;;;5099244;28;20215;-77
2023/06/12 12:35:26;;;;;;;5.93;5.03;;;32.40;58.20;;;;;;5099349;28;20222;-76
2023/06/12 12:37:55;;;;;;;6.20;4.90;;;32.40;57.90;;;;;;5096201;28;20211;-77
2023/06/12 12:40:23;;;;;;;6.65;5.03;;;32.70;58.10;;;;;;5099022;28;20211;-77
2023/06/12 12:42:51;;;;;;;6.80;5.20;;;33.00;57.80;;;;;;5097796;28;20208;-76
2023/06/12 12:45:19;;;;;;;7.35;6.32;;;33.40;58.00;;;;;;5083226;28;20214;-77
2023/06/12 12:47:51;;;;;;;6.90;5.35;;;33.60;57.90;;;;;;5100190;28;20244;-79
2023/06/12 12:50:20;;;;;;;6.85;5.40;;;33.60;57.90;;;;;;5097281;28;20222;-77
2023/06/12 12:52:52;;;;;;;6.22;5.53;;;33.50;57.40;;;;;;5100196;28;20239;-78
2023/06/12 12:55:19;;;;;;;12.07;5.90;;;33.50;57.50;;;;;;5100202;28;20203;-77